sensor_id;sensor_type;location;lat;lon;timestamp;temperature;humidity
56729;DHT22;42612;52.232;7.560;2023-05-14T00:01:38;19.80;47.40
56729;DHT22;42612;52.232;7.560;2023-05-14T00:04:04;19.80;47.50
56729;DHT22;42612;52.232;7.560;2023-05-14T00:06:30;19.70;47.40
56729;DHT22;42612;52.232;7.560;2023-05-14T00:08:56;19.70;47.40
56729;DHT22;42612;52.232;7.560;2023-05-14T00:11:21;19.70;47.50
56729;DHT22;42612;52.232;7.560;2023-05-14T00:13:48;19.60;47.60
56729;DHT22;42612;52.232;7.560;2023-05-14T00:16:14;19.60;47.70
56729;DHT22;42612;52.232;7.560;2023-05-14T00:18:40;19.60;47.80
56729;DHT22;42612;52.232;7.560;2023-05-14T00:21:06;19.50;47.80
56729;DHT22;42612;52.232;7.560;2023-05-14T00:23:31;19.60;47.80
56729;DHT22;42612;52.232;7.560;2023-05-14T00:25:57;19.50;47.90
56729;DHT22;42612;52.232;7.560;2023-05-14T00:28:23;19.50;48.10
56729;DHT22;42612;52.232;7.560;2023-05-14T00:30:48;19.50;48.00
56729;DHT22;42612;52.232;7.560;2023-05-14T00:33:15;19.40;48.10
56729;DHT22;42612;52.232;7.560;2023-05-14T00:35:40;19.40;48.10
56729;DHT22;42612;52.232;7.560;2023-05-14T00:38:06;19.40;48.10
56729;DHT22;42612;52.232;7.560;2023-05-14T00:40:32;19.30;48.10
56729;DHT22;42612;52.232;7.560;2023-05-14T00:42:58;19.30;48.20
56729;DHT22;42612;52.232;7.560;2023-05-14T00:45:24;19.20;48.10
56729;DHT22;42612;52.232;7.560;2023-05-14T00:47:50;19.20;48.30
56729;DHT22;42612;52.232;7.560;2023-05-14T00:50:17;19.20;48.40
56729;DHT22;42612;52.232;7.560;2023-05-14T00:52:43;19.20;48.50
56729;DHT22;42612;52.232;7.560;2023-05-14T00:55:09;19.10;48.90
56729;DHT22;42612;52.232;7.560;2023-05-14T00:57:37;19.10;48.80
56729;DHT22;42612;52.232;7.560;2023-05-14T01:00:03;19.20;48.80
56729;DHT22;42612;52.232;7.560;2023-05-14T01:02:29;19.10;48.60
56729;DHT22;42612;52.232;7.560;2023-05-14T01:04:56;19.00;48.60
56729;DHT22;42612;52.232;7.560;2023-05-14T01:07:42;19.00;49.00
56729;DHT22;42612;52.232;7.560;2023-05-14T01:10:28;19.00;49.30
56729;DHT22;42612;52.232;7.560;2023-05-14T01:13:03;18.90;49.10
56729;DHT22;42612;52.232;7.560;2023-05-14T01:15:36;18.90;48.60
56729;DHT22;42612;52.232;7.560;2023-05-14T01:18:08;18.80;48.90
56729;DHT22;42612;52.232;7.560;2023-05-14T01:20:35;18.80;49.10
56729;DHT22;42612;52.232;7.560;2023-05-14T01:23:01;18.80;48.80
56729;DHT22;42612;52.232;7.560;2023-05-14T01:25:29;18.70;48.80
56729;DHT22;42612;52.232;7.560;2023-05-14T01:28:00;18.70;48.80
56729;DHT22;42612;52.232;7.560;2023-05-14T01:30:56;18.60;48.80
56729;DHT22;42612;52.232;7.560;2023-05-14T01:33:33;18.60;49.10
56729;DHT22;42612;52.232;7.560;2023-05-14T01:36:00;18.50;48.90
56729;DHT22;42612;52.232;7.560;2023-05-14T01:38:26;18.50;49.00
56729;DHT22;42612;52.232;7.560;2023-05-14T01:40:56;18.40;49.00
56729;DHT22;42612;52.232;7.560;2023-05-14T01:43:23;18.40;49.10
56729;DHT22;42612;52.232;7.560;2023-05-14T01:45:48;18.30;49.10
56729;DHT22;42612;52.232;7.560;2023-05-14T01:48:14;18.30;49.20
56729;DHT22;42612;52.232;7.560;2023-05-14T01:50:40;18.30;49.30
56729;DHT22;42612;52.232;7.560;2023-05-14T01:53:06;18.30;49.40
56729;DHT22;42612;52.232;7.560;2023-05-14T01:55:31;18.20;49.30
56729;DHT22;42612;52.232;7.560;2023-05-14T01:57:57;18.20;49.20
56729;DHT22;42612;52.232;7.560;2023-05-14T02:00:24;18.20;49.20
56729;DHT22;42612;52.232;7.560;2023-05-14T02:02:50;18.20;49.40
56729;DHT22;42612;52.232;7.560;2023-05-14T02:05:16;18.20;49.30
56729;DHT22;42612;52.232;7.560;2023-05-14T02:07:41;18.20;49.40
56729;DHT22;42612;52.232;7.560;2023-05-14T02:10:07;18.10;49.30
56729;DHT22;42612;52.232;7.560;2023-05-14T02:12:34;18.10;49.30
56729;DHT22;42612;52.232;7.560;2023-05-14T02:15:00;18.10;49.50
56729;DHT22;42612;52.232;7.560;2023-05-14T02:17:25;18.10;49.50
56729;DHT22;42612;52.232;7.560;2023-05-14T02:19:51;18.00;49.50
56729;DHT22;42612;52.232;7.560;2023-05-14T02:22:17;18.00;49.70
56729;DHT22;42612;52.232;7.560;2023-05-14T02:24:42;18.00;49.60
56729;DHT22;42612;52.232;7.560;2023-05-14T02:27:08;18.00;49.60
56729;DHT22;42612;52.232;7.560;2023-05-14T02:29:34;18.00;49.50
56729;DHT22;42612;52.232;7.560;2023-05-14T02:31:59;18.00;49.70
56729;DHT22;42612;52.232;7.560;2023-05-14T02:34:25;18.00;49.70
56729;DHT22;42612;52.232;7.560;2023-05-14T02:36:51;17.90;49.70
56729;DHT22;42612;52.232;7.560;2023-05-14T02:39:16;17.90;49.90
56729;DHT22;42612;52.232;7.560;2023-05-14T02:41:42;17.90;50.00
56729;DHT22;42612;52.232;7.560;2023-05-14T02:44:08;17.90;49.90
56729;DHT22;42612;52.232;7.560;2023-05-14T02:46:33;17.90;49.80
56729;DHT22;42612;52.232;7.560;2023-05-14T02:48:59;17.90;49.80
56729;DHT22;42612;52.232;7.560;2023-05-14T02:51:25;17.90;49.80
56729;DHT22;42612;52.232;7.560;2023-05-14T02:53:51;17.90;50.00
56729;DHT22;42612;52.232;7.560;2023-05-14T02:56:17;17.80;50.00
56729;DHT22;42612;52.232;7.560;2023-05-14T02:58:42;17.80;50.00
56729;DHT22;42612;52.232;7.560;2023-05-14T03:01:08;17.80;50.00
56729;DHT22;42612;52.232;7.560;2023-05-14T03:03:35;17.80;50.20
56729;DHT22;42612;52.232;7.560;2023-05-14T03:06:01;17.70;50.20
56729;DHT22;42612;52.232;7.560;2023-05-14T03:08:26;17.70;50.20
56729;DHT22;42612;52.232;7.560;2023-05-14T03:10:52;17.70;50.20
56729;DHT22;42612;52.232;7.560;2023-05-14T03:13:18;17.70;50.20
56729;DHT22;42612;52.232;7.560;2023-05-14T03:15:45;17.70;50.40
56729;DHT22;42612;52.232;7.560;2023-05-14T03:18:12;17.70;50.40
56729;DHT22;42612;52.232;7.560;2023-05-14T03:20:38;17.60;50.40
56729;DHT22;42612;52.232;7.560;2023-05-14T03:23:04;17.70;50.70
56729;DHT22;42612;52.232;7.560;2023-05-14T03:25:29;17.60;50.40
56729;DHT22;42612;52.232;7.560;2023-05-14T03:27:55;17.60;50.40
56729;DHT22;42612;52.232;7.560;2023-05-14T03:30:21;17.60;50.50
56729;DHT22;42612;52.232;7.560;2023-05-14T03:32:47;17.50;50.40
56729;DHT22;42612;52.232;7.560;2023-05-14T03:35:12;17.50;50.40
56729;DHT22;42612;52.232;7.560;2023-05-14T03:37:38;17.50;50.40
56729;DHT22;42612;52.232;7.560;2023-05-14T03:40:04;17.50;50.50
56729;DHT22;42612;52.232;7.560;2023-05-14T03:42:30;17.40;50.50
56729;DHT22;42612;52.232;7.560;2023-05-14T03:44:56;17.40;50.50
56729;DHT22;42612;52.232;7.560;2023-05-14T03:47:22;17.30;50.50
56729;DHT22;42612;52.232;7.560;2023-05-14T03:49:48;17.30;50.70
56729;DHT22;42612;52.232;7.560;2023-05-14T03:52:13;17.30;50.70
56729;DHT22;42612;52.232;7.560;2023-05-14T03:54:39;17.30;51.00
56729;DHT22;42612;52.232;7.560;2023-05-14T03:57:05;17.20;50.90
56729;DHT22;42612;52.232;7.560;2023-05-14T03:59:31;17.20;50.90
56729;DHT22;42612;52.232;7.560;2023-05-14T04:01:57;17.20;51.00
56729;DHT22;42612;52.232;7.560;2023-05-14T04:04:22;17.20;51.10
56729;DHT22;42612;52.232;7.560;2023-05-14T04:06:48;17.10;51.10
56729;DHT22;42612;52.232;7.560;2023-05-14T04:09:14;17.10;51.20
56729;DHT22;42612;52.232;7.560;2023-05-14T04:11:40;17.10;51.20
56729;DHT22;42612;52.232;7.560;2023-05-14T04:14:05;17.10;51.30
56729;DHT22;42612;52.232;7.560;2023-05-14T04:16:31;17.20;51.30
56729;DHT22;42612;52.232;7.560;2023-05-14T04:18:57;17.10;51.50
56729;DHT22;42612;52.232;7.560;2023-05-14T04:21:22;17.10;51.80
56729;DHT22;42612;52.232;7.560;2023-05-14T04:23:48;17.10;52.40
56729;DHT22;42612;52.232;7.560;2023-05-14T04:26:15;17.10;51.80
56729;DHT22;42612;52.232;7.560;2023-05-14T04:28:41;17.10;51.90
56729;DHT22;42612;52.232;7.560;2023-05-14T04:31:07;17.10;51.80
56729;DHT22;42612;52.232;7.560;2023-05-14T04:33:32;17.10;52.20
56729;DHT22;42612;52.232;7.560;2023-05-14T04:35:58;17.10;52.20
56729;DHT22;42612;52.232;7.560;2023-05-14T04:38:24;17.10;52.20
56729;DHT22;42612;52.232;7.560;2023-05-14T04:40:50;17.10;52.10
56729;DHT22;42612;52.232;7.560;2023-05-14T04:43:15;17.10;52.00
56729;DHT22;42612;52.232;7.560;2023-05-14T04:45:41;17.10;52.00
56729;DHT22;42612;52.232;7.560;2023-05-14T04:48:07;17.10;52.10
56729;DHT22;42612;52.232;7.560;2023-05-14T04:50:33;17.10;52.40
56729;DHT22;42612;52.232;7.560;2023-05-14T04:52:59;17.20;52.50
56729;DHT22;42612;52.232;7.560;2023-05-14T04:55:25;17.10;52.30
56729;DHT22;42612;52.232;7.560;2023-05-14T04:57:51;17.10;52.40
56729;DHT22;42612;52.232;7.560;2023-05-14T05:00:17;17.10;52.60
56729;DHT22;42612;52.232;7.560;2023-05-14T05:02:43;17.20;52.50
56729;DHT22;42612;52.232;7.560;2023-05-14T05:05:09;17.10;52.40
56729;DHT22;42612;52.232;7.560;2023-05-14T05:07:35;17.20;52.40
56729;DHT22;42612;52.232;7.560;2023-05-14T05:10:01;17.20;52.30
56729;DHT22;42612;52.232;7.560;2023-05-14T05:12:26;17.10;52.30
56729;DHT22;42612;52.232;7.560;2023-05-14T05:14:55;17.10;52.40
56729;DHT22;42612;52.232;7.560;2023-05-14T05:17:22;17.20;52.70
56729;DHT22;42612;52.232;7.560;2023-05-14T05:19:48;17.20;52.30
56729;DHT22;42612;52.232;7.560;2023-05-14T05:22:14;17.20;52.40
56729;DHT22;42612;52.232;7.560;2023-05-14T05:24:40;17.10;52.50
56729;DHT22;42612;52.232;7.560;2023-05-14T05:27:05;17.20;52.60
56729;DHT22;42612;52.232;7.560;2023-05-14T05:29:31;17.20;52.70
56729;DHT22;42612;52.232;7.560;2023-05-14T05:31:57;17.20;52.90
56729;DHT22;42612;52.232;7.560;2023-05-14T05:34:23;17.20;53.00
56729;DHT22;42612;52.232;7.560;2023-05-14T05:36:49;17.20;53.10
56729;DHT22;42612;52.232;7.560;2023-05-14T05:39:15;17.20;53.20
56729;DHT22;42612;52.232;7.560;2023-05-14T05:41:41;17.30;53.40
56729;DHT22;42612;52.232;7.560;2023-05-14T05:44:07;17.30;53.60
56729;DHT22;42612;52.232;7.560;2023-05-14T05:46:33;17.30;53.50
56729;DHT22;42612;52.232;7.560;2023-05-14T05:48:58;17.40;53.70
56729;DHT22;42612;52.232;7.560;2023-05-14T05:51:24;17.40;53.70
56729;DHT22;42612;52.232;7.560;2023-05-14T05:53:50;17.50;53.80
56729;DHT22;42612;52.232;7.560;2023-05-14T05:56:16;17.50;53.50
56729;DHT22;42612;52.232;7.560;2023-05-14T05:58:42;17.60;53.50
56729;DHT22;42612;52.232;7.560;2023-05-14T06:01:07;17.60;53.60
56729;DHT22;42612;52.232;7.560;2023-05-14T06:03:33;17.70;53.60
56729;DHT22;42612;52.232;7.560;2023-05-14T06:05:59;17.80;53.70
56729;DHT22;42612;52.232;7.560;2023-05-14T06:08:25;17.80;53.70
56729;DHT22;42612;52.232;7.560;2023-05-14T06:10:51;17.90;53.70
56729;DHT22;42612;52.232;7.560;2023-05-14T06:13:17;18.00;53.40
56729;DHT22;42612;52.232;7.560;2023-05-14T06:15:42;18.10;53.40
56729;DHT22;42612;52.232;7.560;2023-05-14T06:18:08;18.20;53.20
56729;DHT22;42612;52.232;7.560;2023-05-14T06:20:34;18.30;53.10
56729;DHT22;42612;52.232;7.560;2023-05-14T06:22:59;18.40;53.10
56729;DHT22;42612;52.232;7.560;2023-05-14T06:25:25;18.40;53.10
56729;DHT22;42612;52.232;7.560;2023-05-14T06:27:51;18.50;53.00
56729;DHT22;42612;52.232;7.560;2023-05-14T06:30:16;18.50;52.80
56729;DHT22;42612;52.232;7.560;2023-05-14T06:32:42;18.60;52.70
56729;DHT22;42612;52.232;7.560;2023-05-14T06:35:08;18.70;52.40
56729;DHT22;42612;52.232;7.560;2023-05-14T06:37:34;18.80;52.20
56729;DHT22;42612;52.232;7.560;2023-05-14T06:40:00;18.80;52.10
56729;DHT22;42612;52.232;7.560;2023-05-14T06:42:26;18.90;51.90
56729;DHT22;42612;52.232;7.560;2023-05-14T06:44:52;19.00;51.70
56729;DHT22;42612;52.232;7.560;2023-05-14T06:47:18;19.00;51.50
56729;DHT22;42612;52.232;7.560;2023-05-14T06:49:44;19.10;51.60
56729;DHT22;42612;52.232;7.560;2023-05-14T06:52:10;19.10;51.40
56729;DHT22;42612;52.232;7.560;2023-05-14T06:54:36;19.20;51.50
56729;DHT22;42612;52.232;7.560;2023-05-14T06:57:01;19.30;51.50
56729;DHT22;42612;52.232;7.560;2023-05-14T06:59:27;19.30;51.00
56729;DHT22;42612;52.232;7.560;2023-05-14T07:01:53;19.40;51.00
56729;DHT22;42612;52.232;7.560;2023-05-14T07:04:19;19.40;50.90
56729;DHT22;42612;52.232;7.560;2023-05-14T07:06:45;19.50;50.80
56729;DHT22;42612;52.232;7.560;2023-05-14T07:09:11;19.50;50.60
56729;DHT22;42612;52.232;7.560;2023-05-14T07:11:37;19.60;50.60
56729;DHT22;42612;52.232;7.560;2023-05-14T07:14:03;19.60;50.50
56729;DHT22;42612;52.232;7.560;2023-05-14T07:16:28;19.70;50.50
56729;DHT22;42612;52.232;7.560;2023-05-14T07:18:54;19.80;50.50
56729;DHT22;42612;52.232;7.560;2023-05-14T07:21:20;19.80;50.60
56729;DHT22;42612;52.232;7.560;2023-05-14T07:23:46;19.80;50.50
56729;DHT22;42612;52.232;7.560;2023-05-14T07:26:11;19.90;50.40
56729;DHT22;42612;52.232;7.560;2023-05-14T07:28:37;19.90;50.20
56729;DHT22;42612;52.232;7.560;2023-05-14T07:31:03;20.00;49.80
56729;DHT22;42612;52.232;7.560;2023-05-14T07:33:36;20.00;49.70
56729;DHT22;42612;52.232;7.560;2023-05-14T07:36:02;20.10;49.60
56729;DHT22;42612;52.232;7.560;2023-05-14T07:38:29;20.10;49.50
56729;DHT22;42612;52.232;7.560;2023-05-14T07:40:55;20.20;49.40
56729;DHT22;42612;52.232;7.560;2023-05-14T07:43:21;20.20;49.30
56729;DHT22;42612;52.232;7.560;2023-05-14T07:45:46;20.20;49.50
56729;DHT22;42612;52.232;7.560;2023-05-14T07:48:12;20.30;49.70
56729;DHT22;42612;52.232;7.560;2023-05-14T07:50:38;20.30;49.90
56729;DHT22;42612;52.232;7.560;2023-05-14T07:53:03;20.30;49.90
56729;DHT22;42612;52.232;7.560;2023-05-14T07:55:29;20.40;50.00
56729;DHT22;42612;52.232;7.560;2023-05-14T07:57:55;20.50;49.60
56729;DHT22;42612;52.232;7.560;2023-05-14T08:00:20;20.50;49.40
56729;DHT22;42612;52.232;7.560;2023-05-14T08:02:47;20.60;49.60
56729;DHT22;42612;52.232;7.560;2023-05-14T08:05:13;20.70;49.70
56729;DHT22;42612;52.232;7.560;2023-05-14T08:07:39;20.70;49.50
56729;DHT22;42612;52.232;7.560;2023-05-14T08:10:06;20.80;49.30
56729;DHT22;42612;52.232;7.560;2023-05-14T08:12:32;20.90;49.20
56729;DHT22;42612;52.232;7.560;2023-05-14T08:14:58;20.90;48.90
56729;DHT22;42612;52.232;7.560;2023-05-14T08:17:23;21.00;48.80
56729;DHT22;42612;52.232;7.560;2023-05-14T08:19:49;21.00;48.70
56729;DHT22;42612;52.232;7.560;2023-05-14T08:22:15;21.10;48.80
56729;DHT22;42612;52.232;7.560;2023-05-14T08:24:40;21.20;48.40
56729;DHT22;42612;52.232;7.560;2023-05-14T08:27:07;21.20;48.40
56729;DHT22;42612;52.232;7.560;2023-05-14T08:29:34;21.20;48.30
56729;DHT22;42612;52.232;7.560;2023-05-14T08:31:59;21.30;48.20
56729;DHT22;42612;52.232;7.560;2023-05-14T08:34:25;21.40;48.00
56729;DHT22;42612;52.232;7.560;2023-05-14T08:36:52;21.40;47.60
56729;DHT22;42612;52.232;7.560;2023-05-14T08:39:17;21.50;47.60
56729;DHT22;42612;52.232;7.560;2023-05-14T08:41:44;21.50;47.60
56729;DHT22;42612;52.232;7.560;2023-05-14T08:44:17;21.60;48.10
56729;DHT22;42612;52.232;7.560;2023-05-14T08:46:44;21.60;47.00
56729;DHT22;42612;52.232;7.560;2023-05-14T08:49:35;21.60;47.00
56729;DHT22;42612;52.232;7.560;2023-05-14T08:52:06;21.70;46.40
56729;DHT22;42612;52.232;7.560;2023-05-14T08:54:33;21.70;47.20
56729;DHT22;42612;52.232;7.560;2023-05-14T08:56:59;21.70;47.20
56729;DHT22;42612;52.232;7.560;2023-05-14T08:59:25;21.80;47.00
56729;DHT22;42612;52.232;7.560;2023-05-14T09:01:52;21.90;46.90
56729;DHT22;42612;52.232;7.560;2023-05-14T09:04:20;21.90;46.50
56729;DHT22;42612;52.232;7.560;2023-05-14T09:06:52;22.00;46.40
56729;DHT22;42612;52.232;7.560;2023-05-14T09:09:20;22.00;46.20
56729;DHT22;42612;52.232;7.560;2023-05-14T09:11:48;22.10;46.10
56729;DHT22;42612;52.232;7.560;2023-05-14T09:14:15;22.20;46.10
56729;DHT22;42612;52.232;7.560;2023-05-14T09:16:45;22.20;46.00
56729;DHT22;42612;52.232;7.560;2023-05-14T09:19:13;22.30;45.70
56729;DHT22;42612;52.232;7.560;2023-05-14T09:21:40;22.30;45.40
56729;DHT22;42612;52.232;7.560;2023-05-14T09:24:07;22.40;45.30
56729;DHT22;42612;52.232;7.560;2023-05-14T09:26:33;22.40;45.10
56729;DHT22;42612;52.232;7.560;2023-05-14T09:29:00;22.50;45.20
56729;DHT22;42612;52.232;7.560;2023-05-14T09:31:28;22.60;45.10
56729;DHT22;42612;52.232;7.560;2023-05-14T09:33:55;22.60;45.00
56729;DHT22;42612;52.232;7.560;2023-05-14T09:36:20;22.70;45.10
56729;DHT22;42612;52.232;7.560;2023-05-14T09:38:46;22.70;44.60
56729;DHT22;42612;52.232;7.560;2023-05-14T09:41:12;22.80;44.60
56729;DHT22;42612;52.232;7.560;2023-05-14T09:43:38;22.80;44.80
56729;DHT22;42612;52.232;7.560;2023-05-14T09:46:03;22.90;44.80
56729;DHT22;42612;52.232;7.560;2023-05-14T09:48:29;22.90;44.80
56729;DHT22;42612;52.232;7.560;2023-05-14T09:50:55;23.00;44.80
56729;DHT22;42612;52.232;7.560;2023-05-14T09:53:21;23.10;44.50
56729;DHT22;42612;52.232;7.560;2023-05-14T09:55:47;23.10;44.30
56729;DHT22;42612;52.232;7.560;2023-05-14T09:58:13;23.20;45.10
56729;DHT22;42612;52.232;7.560;2023-05-14T10:00:43;23.30;45.00
56729;DHT22;42612;52.232;7.560;2023-05-14T10:03:12;23.30;44.90
56729;DHT22;42612;52.232;7.560;2023-05-14T10:05:42;23.40;44.40
56729;DHT22;42612;52.232;7.560;2023-05-14T10:08:12;23.50;44.60
56729;DHT22;42612;52.232;7.560;2023-05-14T10:10:39;23.50;44.00
56729;DHT22;42612;52.232;7.560;2023-05-14T10:13:19;23.70;44.50
56729;DHT22;42612;52.232;7.560;2023-05-14T10:16:52;23.80;43.40
56729;DHT22;42612;52.232;7.560;2023-05-14T10:19:05;23.90;43.10
56729;DHT22;42612;52.232;7.560;2023-05-14T10:21:35;24.00;43.10
56729;DHT22;42612;52.232;7.560;2023-05-14T10:24:05;24.00;43.40
56729;DHT22;42612;52.232;7.560;2023-05-14T10:26:33;24.10;42.80
56729;DHT22;42612;52.232;7.560;2023-05-14T10:29:05;24.20;42.30
56729;DHT22;42612;52.232;7.560;2023-05-14T10:34:39;24.30;40.50
56729;DHT22;42612;52.232;7.560;2023-05-14T10:37:26;24.40;41.00
56729;DHT22;42612;52.232;7.560;2023-05-14T10:39:56;24.40;41.50
56729;DHT22;42612;52.232;7.560;2023-05-14T10:44:58;24.50;42.00
56729;DHT22;42612;52.232;7.560;2023-05-14T10:47:27;24.60;41.20
56729;DHT22;42612;52.232;7.560;2023-05-14T10:49:55;24.70;41.30
56729;DHT22;42612;52.232;7.560;2023-05-14T10:52:23;24.70;41.20
56729;DHT22;42612;52.232;7.560;2023-05-14T10:54:51;24.80;41.10
56729;DHT22;42612;52.232;7.560;2023-05-14T10:57:22;24.80;40.70
56729;DHT22;42612;52.232;7.560;2023-05-14T10:59:58;24.90;40.80
56729;DHT22;42612;52.232;7.560;2023-05-14T11:02:25;24.90;40.20
56729;DHT22;42612;52.232;7.560;2023-05-14T11:05:15;24.90;40.90
56729;DHT22;42612;52.232;7.560;2023-05-14T11:07:48;25.00;40.50
56729;DHT22;42612;52.232;7.560;2023-05-14T11:10:19;25.10;40.30
56729;DHT22;42612;52.232;7.560;2023-05-14T11:12:49;25.10;40.50
56729;DHT22;42612;52.232;7.560;2023-05-14T11:15:20;25.20;41.10
56729;DHT22;42612;52.232;7.560;2023-05-14T11:17:48;25.30;40.70
56729;DHT22;42612;52.232;7.560;2023-05-14T11:20:15;25.30;40.70
56729;DHT22;42612;52.232;7.560;2023-05-14T11:22:45;25.50;40.40
56729;DHT22;42612;52.232;7.560;2023-05-14T11:25:12;25.50;40.30
56729;DHT22;42612;52.232;7.560;2023-05-14T11:27:39;25.50;40.80
56729;DHT22;42612;52.232;7.560;2023-05-14T11:30:16;25.60;40.80
56729;DHT22;42612;52.232;7.560;2023-05-14T11:32:45;25.70;39.50
56729;DHT22;42612;52.232;7.560;2023-05-14T11:35:12;25.70;40.20
56729;DHT22;42612;52.232;7.560;2023-05-14T11:37:38;25.70;39.30
56729;DHT22;42612;52.232;7.560;2023-05-14T11:40:07;25.70;39.40
56729;DHT22;42612;52.232;7.560;2023-05-14T11:42:35;25.70;38.80
56729;DHT22;42612;52.232;7.560;2023-05-14T11:45:01;25.70;38.30
56729;DHT22;42612;52.232;7.560;2023-05-14T11:47:28;25.70;38.60
56729;DHT22;42612;52.232;7.560;2023-05-14T11:49:54;25.80;38.80
56729;DHT22;42612;52.232;7.560;2023-05-14T11:52:20;25.80;38.80
56729;DHT22;42612;52.232;7.560;2023-05-14T11:54:46;25.90;39.20
56729;DHT22;42612;52.232;7.560;2023-05-14T11:57:18;25.90;39.10
56729;DHT22;42612;52.232;7.560;2023-05-14T11:59:46;26.00;39.20
56729;DHT22;42612;52.232;7.560;2023-05-14T12:02:15;26.10;38.80
56729;DHT22;42612;52.232;7.560;2023-05-14T12:04:43;26.20;38.70
56729;DHT22;42612;52.232;7.560;2023-05-14T12:07:10;26.30;38.60
56729;DHT22;42612;52.232;7.560;2023-05-14T12:09:40;26.30;38.40
56729;DHT22;42612;52.232;7.560;2023-05-14T12:12:20;26.40;38.10
56729;DHT22;42612;52.232;7.560;2023-05-14T12:14:47;26.40;37.60
56729;DHT22;42612;52.232;7.560;2023-05-14T12:17:21;26.40;38.00
56729;DHT22;42612;52.232;7.560;2023-05-14T12:19:51;26.40;37.80
56729;DHT22;42612;52.232;7.560;2023-05-14T12:22:18;26.30;37.60
56729;DHT22;42612;52.232;7.560;2023-05-14T12:24:55;26.40;37.90
56729;DHT22;42612;52.232;7.560;2023-05-14T12:27:26;26.30;37.60
56729;DHT22;42612;52.232;7.560;2023-05-14T12:30:00;26.30;37.80
56729;DHT22;42612;52.232;7.560;2023-05-14T12:32:30;26.40;36.70
56729;DHT22;42612;52.232;7.560;2023-05-14T12:34:59;26.50;37.90
56729;DHT22;42612;52.232;7.560;2023-05-14T12:37:25;26.60;37.70
56729;DHT22;42612;52.232;7.560;2023-05-14T12:39:52;26.60;37.80
56729;DHT22;42612;52.232;7.560;2023-05-14T12:42:18;26.70;38.10
56729;DHT22;42612;52.232;7.560;2023-05-14T12:44:44;26.80;37.90
56729;DHT22;42612;52.232;7.560;2023-05-14T12:47:09;26.80;36.80
56729;DHT22;42612;52.232;7.560;2023-05-14T12:49:35;26.80;36.90
56729;DHT22;42612;52.232;7.560;2023-05-14T12:52:01;26.70;36.90
56729;DHT22;42612;52.232;7.560;2023-05-14T12:54:27;26.70;37.10
56729;DHT22;42612;52.232;7.560;2023-05-14T12:56:53;26.70;37.10
56729;DHT22;42612;52.232;7.560;2023-05-14T12:59:19;26.60;36.70
56729;DHT22;42612;52.232;7.560;2023-05-14T13:01:45;26.60;36.90
56729;DHT22;42612;52.232;7.560;2023-05-14T13:04:10;26.60;37.00
56729;DHT22;42612;52.232;7.560;2023-05-14T13:06:37;26.60;36.70
56729;DHT22;42612;52.232;7.560;2023-05-14T13:09:04;26.60;36.60
56729;DHT22;42612;52.232;7.560;2023-05-14T13:11:33;26.60;36.80
56729;DHT22;42612;52.232;7.560;2023-05-14T13:13:59;26.60;36.80
56729;DHT22;42612;52.232;7.560;2023-05-14T13:16:26;26.60;37.50
56729;DHT22;42612;52.232;7.560;2023-05-14T13:18:53;26.60;36.10
56729;DHT22;42612;52.232;7.560;2023-05-14T13:21:18;26.60;36.50
56729;DHT22;42612;52.232;7.560;2023-05-14T13:23:45;26.60;36.30
56729;DHT22;42612;52.232;7.560;2023-05-14T13:26:11;26.50;36.30
56729;DHT22;42612;52.232;7.560;2023-05-14T13:28:37;26.60;36.20
56729;DHT22;42612;52.232;7.560;2023-05-14T13:31:07;26.60;36.10
56729;DHT22;42612;52.232;7.560;2023-05-14T13:33:41;26.70;36.00
56729;DHT22;42612;52.232;7.560;2023-05-14T13:36:09;26.70;35.50
56729;DHT22;42612;52.232;7.560;2023-05-14T13:38:36;26.80;36.60
56729;DHT22;42612;52.232;7.560;2023-05-14T13:41:02;26.90;36.90
56729;DHT22;42612;52.232;7.560;2023-05-14T13:43:30;27.00;36.40
56729;DHT22;42612;52.232;7.560;2023-05-14T13:45:57;27.10;36.20
56729;DHT22;42612;52.232;7.560;2023-05-14T13:48:23;27.10;36.30
56729;DHT22;42612;52.232;7.560;2023-05-14T13:50:50;27.20;36.60
56729;DHT22;42612;52.232;7.560;2023-05-14T13:53:19;27.20;36.60
56729;DHT22;42612;52.232;7.560;2023-05-14T13:55:46;27.20;36.10
56729;DHT22;42612;52.232;7.560;2023-05-14T13:58:12;27.20;36.50
56729;DHT22;42612;52.232;7.560;2023-05-14T14:00:38;27.20;36.50
56729;DHT22;42612;52.232;7.560;2023-05-14T14:03:04;27.30;37.20
56729;DHT22;42612;52.232;7.560;2023-05-14T14:05:30;27.40;37.50
56729;DHT22;42612;52.232;7.560;2023-05-14T14:07:56;27.40;36.60
56729;DHT22;42612;52.232;7.560;2023-05-14T14:10:22;27.50;36.50
56729;DHT22;42612;52.232;7.560;2023-05-14T14:12:48;27.60;36.30
56729;DHT22;42612;52.232;7.560;2023-05-14T14:15:14;27.70;36.40
56729;DHT22;42612;52.232;7.560;2023-05-14T14:17:39;27.80;36.00
56729;DHT22;42612;52.232;7.560;2023-05-14T14:20:07;27.80;35.80
56729;DHT22;42612;52.232;7.560;2023-05-14T14:22:33;27.80;35.60
56729;DHT22;42612;52.232;7.560;2023-05-14T14:25:00;27.90;35.60
56729;DHT22;42612;52.232;7.560;2023-05-14T14:27:26;27.80;35.10
56729;DHT22;42612;52.232;7.560;2023-05-14T14:29:52;27.80;34.70
56729;DHT22;42612;52.232;7.560;2023-05-14T14:32:17;27.70;34.60
56729;DHT22;42612;52.232;7.560;2023-05-14T14:34:43;27.70;34.90
56729;DHT22;42612;52.232;7.560;2023-05-14T14:37:09;27.60;35.20
56729;DHT22;42612;52.232;7.560;2023-05-14T14:39:34;27.60;35.20
56729;DHT22;42612;52.232;7.560;2023-05-14T14:42:01;27.50;35.20
56729;DHT22;42612;52.232;7.560;2023-05-14T14:44:27;27.50;34.60
56729;DHT22;42612;52.232;7.560;2023-05-14T14:46:53;27.40;34.60
56729;DHT22;42612;52.232;7.560;2023-05-14T14:49:18;27.40;34.30
56729;DHT22;42612;52.232;7.560;2023-05-14T14:51:44;27.30;34.50
56729;DHT22;42612;52.232;7.560;2023-05-14T14:54:11;27.20;34.40
56729;DHT22;42612;52.232;7.560;2023-05-14T14:56:36;27.10;34.40
56729;DHT22;42612;52.232;7.560;2023-05-14T14:59:03;27.00;34.90
56729;DHT22;42612;52.232;7.560;2023-05-14T15:01:29;27.00;35.00
56729;DHT22;42612;52.232;7.560;2023-05-14T15:03:54;26.90;34.90
56729;DHT22;42612;52.232;7.560;2023-05-14T15:06:20;26.80;34.30
56729;DHT22;42612;52.232;7.560;2023-05-14T15:08:46;26.80;34.30
56729;DHT22;42612;52.232;7.560;2023-05-14T15:11:12;26.70;33.90
56729;DHT22;42612;52.232;7.560;2023-05-14T15:13:38;26.70;34.30
56729;DHT22;42612;52.232;7.560;2023-05-14T15:16:06;26.60;34.30
56729;DHT22;42612;52.232;7.560;2023-05-14T15:18:32;26.60;34.40
56729;DHT22;42612;52.232;7.560;2023-05-14T15:20:57;26.50;34.60
56729;DHT22;42612;52.232;7.560;2023-05-14T15:23:23;26.50;34.50
56729;DHT22;42612;52.232;7.560;2023-05-14T15:25:49;26.50;35.60
56729;DHT22;42612;52.232;7.560;2023-05-14T15:28:15;26.50;35.70
56729;DHT22;42612;52.232;7.560;2023-05-14T15:30:40;26.50;35.60
56729;DHT22;42612;52.232;7.560;2023-05-14T15:33:06;26.50;35.80
56729;DHT22;42612;52.232;7.560;2023-05-14T15:35:32;26.60;35.40